首页
METAR-TAF:

METAR-TAF

机场 :

厦门高崎国际机场

厦门, 中华人民共和国

纬度: 24-29N, 经度: 118-05E, 海拔: 139米

当前天气观测

该预报发布于52分钟前的00:00 UTC
风速2节,风向多变
温度 18°C
湿度 94%
气压 1020 hPa
能見度: 8000

METAR: ZSAM 110000Z VRB01MPS 8000 NSC 18/17 Q1020 NOSIG

时间: 08:52 (00:52 UTC)

预报

该预报发布于5小时和42分钟前的19:10 UTC
预报有效从11日的 00点(UTC)到 11日的 24点(UTC)
风速8节,风向东北,有时为17节阵风
能見度: 8000
散云层高于4000英尺

TAF: ZSAM 101910Z 1100/1124 05004G09MPS 8000 SCT040 TX23/1106Z TN16/1121Z

超过4000个机场的气象观测和天气预报(METAR&TAF报告)。

可查询的气象台以黄色和红色小点在地图上表示。

将鼠标移到小点上方,可查看气象台名称。

然后点击查看天气观测和预报。

如需切换地图:点击带黑十字的绿色按钮放大地图;点击带横线的绿色按钮缩小地图;或者点击绿色箭头查看邻近地区的地图。


METAR-TAF: